Time;durP1;ratioP1;P1;durP2;ratioP2;P2;SDS_P1;SDS_P2;PMS_P1;PMS_P2;Temp;Humidity;BMP_temperature;BMP_pressure;BME280_temperature;BME280_humidity;BME280_pressure;Samples;Min_cycle;Max_cycle;Signal;HPM_P1;HPM_P2
2022/04/28 00:00:25;;;;;;;0.00;0.00;;;;;;;14.90;63.43;98942.31;5052741;28;20029;-80
2022/04/28 00:02:52;;;;;;;0.00;0.00;;;;;;;14.84;63.79;98949.75;5052829;28;20470;-80
2022/04/28 00:05:17;;;;;;;0.08;0.08;;;;;;;14.73;64.00;98949.19;5051637;28;20454;-80
2022/04/28 00:07:44;;;;;;;0.03;0.03;;;;;;;14.55;64.46;98956.28;5051800;28;20029;-79
2022/04/28 00:10:10;;;;;;;0.05;0.05;;;;;;;14.57;64.69;98950.59;5051546;28;20060;-79
2022/04/28 00:12:36;;;;;;;0.10;0.10;;;;;;;14.63;64.48;98954.75;5051208;28;20037;-79
2022/04/28 00:15:02;;;;;;;0.00;0.00;;;;;;;14.61;64.49;98950.78;5051403;28;20409;-79
2022/04/28 00:17:28;;;;;;;0.00;0.00;;;;;;;14.60;64.49;98951.88;5050908;28;20029;-80
2022/04/28 00:19:54;;;;;;;0.00;0.00;;;;;;;14.65;64.47;98954.47;5051109;28;20033;-78
2022/04/28 00:22:21;;;;;;;0.03;0.03;;;;;;;14.64;64.06;98952.88;5051282;28;20032;-78
2022/04/28 00:24:46;;;;;;;0.00;0.00;;;;;;;14.67;64.13;98954.97;5051549;28;20460;-79
2022/04/28 00:27:11;;;;;;;0.03;0.03;;;;;;;14.63;64.08;98953.97;5051186;28;20081;-80
2022/04/28 00:29:37;;;;;;;0.00;0.00;;;;;;;14.60;63.97;98949.19;5051504;28;20067;-81
2022/04/28 00:32:03;;;;;;;0.00;0.00;;;;;;;14.67;64.09;98952.28;5050963;28;20060;-78
2022/04/28 00:34:28;;;;;;;0.00;0.00;;;;;;;14.68;63.82;98943.94;5051104;28;20476;-78
2022/04/28 00:36:53;;;;;;;0.08;0.08;;;;;;;14.73;63.82;98951.06;5052584;28;20033;-78
2022/04/28 00:39:19;;;;;;;0.00;0.00;;;;;;;14.76;63.85;98949.66;5050952;28;20102;-78
2022/04/28 00:41:45;;;;;;;0.00;0.00;;;;;;;14.82;63.84;98951.94;5052691;28;20044;-79
2022/04/28 00:44:11;;;;;;;0.00;0.00;;;;;;;14.83;63.62;98945.44;5051854;28;20033;-77
2022/04/28 00:46:37;;;;;;;0.00;0.00;;;;;;;14.88;63.40;98950.72;5052301;28;20039;-79
2022/04/28 00:51:47;;;;;;;0.00;0.00;;;;;;;14.92;63.35;98955.50;5052277;28;20095;-81
2022/04/28 00:54:13;;;;;;;0.10;0.10;;;;;;;14.89;63.33;98960.38;5050665;28;20507;-80
2022/04/28 00:56:39;;;;;;;0.10;0.10;;;;;;;14.88;63.47;98953.41;5050861;28;20029;-78
2022/04/28 00:59:06;;;;;;;0.00;0.00;;;;;;;14.90;63.49;98950.38;5052163;28;20420;-81
2022/04/28 01:01:32;;;;;;;0.00;0.00;;;;;;;15.02;62.88;98950.63;5050432;28;20037;-80
2022/04/28 01:03:59;;;;;;;0.00;0.00;;;;;;;14.85;63.16;98948.63;5050720;28;20029;-80
2022/04/28 01:06:24;;;;;;;0.10;0.10;;;;;;;14.82;63.34;98964.63;5050525;28;20021;-80
2022/04/28 01:08:50;;;;;;;0.10;0.10;;;;;;;14.79;63.34;98957.13;5050513;28;20128;-78
2022/04/28 01:11:18;;;;;;;0.00;0.00;;;;;;;14.76;63.25;98952.34;5051822;28;20541;-77
2022/04/28 01:13:45;;;;;;;0.05;0.05;;;;;;;14.75;63.18;98954.25;5051792;28;20082;-78
2022/04/28 01:16:12;;;;;;;0.05;0.05;;;;;;;14.73;63.30;98956.44;5049877;28;20041;-79
2022/04/28 01:18:38;;;;;;;0.00;0.00;;;;;;;14.69;63.19;98958.16;5050224;28;20029;-80
2022/04/28 01:21:04;;;;;;;0.00;0.00;;;;;;;14.69;63.24;98960.88;5050456;28;20078;-81
2022/04/28 01:23:31;;;;;;;0.03;0.03;;;;;;;14.66;63.03;98958.78;5051339;28;20029;-82
2022/04/28 01:25:57;;;;;;;0.00;0.00;;;;;;;14.60;63.34;98957.28;5050414;28;20036;-82
2022/04/28 01:28:22;;;;;;;0.00;0.00;;;;;;;14.55;63.24;98960.91;5050110;28;20021;-83
2022/04/28 01:30:48;;;;;;;0.00;0.00;;;;;;;14.52;63.42;98958.81;5049931;28;20025;-82
2022/04/28 01:33:13;;;;;;;0.00;0.00;;;;;;;14.52;63.42;98956.91;5049995;28;20508;-83
2022/04/28 01:35:39;;;;;;;0.00;0.00;;;;;;;14.53;63.25;98950.41;5050212;28;20060;-83
2022/04/28 01:38:04;;;;;;;0.00;0.00;;;;;;;14.52;63.17;98951.50;5049960;28;20029;-84
2022/04/28 01:40:30;;;;;;;0.00;0.00;;;;;;;14.51;62.93;98949.13;5049685;28;20086;-84
2022/04/28 01:42:55;;;;;;;0.00;0.00;;;;;;;14.46;62.94;98943.88;5050142;28;20535;-85
2022/04/28 01:45:20;;;;;;;0.00;0.00;;;;;;;14.48;62.81;98950.53;5049540;28;20029;-85
2022/04/28 01:47:46;;;;;;;0.00;0.00;;;;;;;14.52;62.42;98948.03;5049496;28;20054;-87
2022/04/28 01:50:12;;;;;;;0.00;0.00;;;;;;;14.53;62.88;98955.00;5049546;28;20053;-84
2022/04/28 01:55:23;;;;;;;0.00;0.00;;;;;;;14.52;62.94;98948.81;5050441;28;20040;-85
2022/04/28 01:57:48;;;;;;;0.08;0.08;;;;;;;14.47;63.23;98945.47;5049934;28;20033;-88
2022/04/28 02:00:15;;;;;;;0.20;0.20;;;;;;;14.47;63.23;98950.84;5049311;28;20098;-87
2022/04/28 02:02:42;;;;;;;0.00;0.00;;;;;;;14.43;63.47;98953.34;5049787;28;20047;-85
2022/04/28 02:05:09;;;;;;;0.08;0.08;;;;;;;14.39;63.55;98952.34;5049937;28;20025;-89
2022/04/28 02:07:35;;;;;;;0.00;0.00;;;;;;;14.38;63.57;98948.88;5049411;28;20029;-79
2022/04/28 02:10:03;;;;;;;0.10;0.10;;;;;;;14.38;63.40;98948.09;5049483;28;20025;-79
2022/04/28 02:12:28;;;;;;;0.22;0.20;;;;;;;14.39;63.40;98946.97;5049215;28;20400;-85
2022/04/28 02:14:54;;;;;;;0.00;0.00;;;;;;;14.36;63.55;98947.59;5050765;28;20103;-85
2022/04/28 02:17:22;;;;;;;0.00;0.00;;;;;;;14.37;63.26;98949.97;5049292;28;20032;-88
2022/04/28 02:19:48;;;;;;;0.00;0.00;;;;;;;14.34;63.08;98947.09;5049672;28;20442;-86
2022/04/28 02:22:13;;;;;;;0.00;0.00;;;;;;;14.30;63.35;98954.97;5049305;28;20119;-88
2022/04/28 02:24:39;;;;;;;0.00;0.00;;;;;;;14.28;63.21;98954.50;5051180;28;20393;-84
2022/04/28 02:27:05;;;;;;;0.00;0.00;;;;;;;14.24;63.31;98957.00;5049657;28;20052;-84
2022/04/28 02:29:31;;;;;;;0.00;0.00;;;;;;;14.23;62.94;98960.78;5049038;28;20067;-85
2022/04/28 02:31:57;;;;;;;0.00;0.00;;;;;;;14.16;63.39;98960.38;5049491;28;20412;-85
2022/04/28 02:34:22;;;;;;;0.00;0.00;;;;;;;14.08;63.31;98953.81;5049012;28;20022;-86
2022/04/28 02:36:48;;;;;;;0.00;0.00;;;;;;;14.04;63.36;98954.75;5049357;28;20033;-84
2022/04/28 02:39:14;;;;;;;0.00;0.00;;;;;;;14.01;63.40;98950.75;5049278;28;20485;-84
2022/04/28 02:41:41;;;;;;;0.00;0.00;;;;;;;13.97;63.94;98959.72;5048892;28;20068;-86
2022/04/28 02:44:06;;;;;;;0.00;0.00;;;;;;;13.95;63.50;98961.91;5049414;28;20130;-86
2022/04/28 02:46:32;;;;;;;0.08;0.08;;;;;;;13.91;63.54;98961.72;5048902;28;20130;-84
2022/04/28 02:48:58;;;;;;;0.08;0.08;;;;;;;13.87;63.87;98969.56;5048838;28;20029;-86
2022/04/28 02:51:23;;;;;;;0.00;0.00;;;;;;;13.84;63.68;98961.31;5048923;28;20053;-86
2022/04/28 02:53:49;;;;;;;0.10;0.10;;;;;;;13.82;63.92;98968.88;5049009;28;20424;-85
2022/04/28 02:56:14;;;;;;;0.00;0.00;;;;;;;13.81;63.58;98968.09;5048815;28;20036;-84
2022/04/28 02:58:40;;;;;;;0.00;0.00;;;;;;;13.78;63.93;98957.94;5049331;28;20120;-88
2022/04/28 03:01:05;;;;;;;0.10;0.10;;;;;;;13.87;63.89;98961.50;5049310;28;20108;-84
2022/04/28 03:03:31;;;;;;;0.00;0.00;;;;;;;13.89;63.33;98971.94;5048508;28;20032;-84
2022/04/28 03:11:24;;;;;;;0.00;0.00;;;;;;;13.68;63.70;98968.88;5053915;28;20087;-85
2022/04/28 03:13:50;;;;;;;0.00;0.00;;;;;;;13.62;63.29;98973.53;5052886;28;20472;-85
2022/04/28 03:16:16;;;;;;;0.00;0.00;;;;;;;13.57;63.72;98971.78;5053270;28;20621;-89
2022/04/28 03:18:41;;;;;;;0.00;0.00;;;;;;;13.52;64.06;98973.75;5052417;28;20025;-87
2022/04/28 03:21:07;;;;;;;0.00;0.00;;;;;;;13.45;63.58;98974.94;5052528;28;20029;-86
2022/04/28 03:23:33;;;;;;;0.00;0.00;;;;;;;13.47;63.92;98980.00;5052506;28;20033;-87
2022/04/28 03:25:58;;;;;;;0.00;0.00;;;;;;;13.40;64.05;98979.59;5052611;28;20040;-86
2022/04/28 03:28:24;;;;;;;0.00;0.00;;;;;;;13.37;64.29;98983.66;5052410;28;20060;-85
2022/04/28 03:30:49;;;;;;;0.00;0.00;;;;;;;13.44;64.47;98994.84;5051926;28;20551;-82
2022/04/28 03:33:16;;;;;;;0.00;0.00;;;;;;;13.53;64.14;98992.25;5052399;28;20120;-84
2022/04/28 03:35:42;;;;;;;0.00;0.00;;;;;;;13.59;64.36;98998.34;5051734;28;20403;-78
2022/04/28 03:38:12;;;;;;;0.10;0.10;;;;;;;13.72;64.32;99005.63;5052897;28;20033;-78
2022/04/28 03:40:41;;;;;;;0.00;0.00;;;;;;;13.95;63.67;98997.63;5053365;28;20025;-78
2022/04/28 03:43:06;;;;;;;0.00;0.00;;;;;;;14.13;63.14;99009.38;5053485;28;20029;-78
2022/04/28 03:45:33;;;;;;;0.00;0.00;;;;;;;14.30;62.92;99008.78;5051847;28;20035;-79
2022/04/28 03:47:59;;;;;;;0.30;0.30;;;;;;;14.50;62.60;99014.81;5051757;28;20474;-79
2022/04/28 03:50:28;;;;;;;0.05;0.05;;;;;;;14.76;61.86;99028.53;5051641;28;20049;-80
2022/04/28 03:52:54;;;;;;;0.03;0.03;;;;;;;15.09;60.92;99022.09;5053245;28;20052;-83
2022/04/28 03:55:19;;;;;;;0.00;0.00;;;;;;;15.45;60.27;99026.63;5052847;28;20484;-84
2022/04/28 03:57:45;;;;;;;0.00;0.00;;;;;;;15.72;58.89;99028.38;5051461;28;20473;-80
2022/04/28 04:00:11;;;;;;;0.00;0.00;;;;;;;16.16;57.85;99032.03;5051759;28;20115;-78
2022/04/28 04:02:36;;;;;;;0.00;0.00;;;;;;;16.59;56.90;99032.44;5051699;28;21041;-78
2022/04/28 04:05:02;;;;;;;0.10;0.10;;;;;;;16.96;55.77;99036.41;5053237;28;20025;-83
2022/04/28 04:07:32;;;;;;;0.00;0.00;;;;;;;17.38;54.10;99035.09;5051584;28;20086;-85
2022/04/28 04:09:58;;;;;;;0.00;0.00;;;;;;;17.67;52.44;99034.38;5051737;28;20067;-82
2022/04/28 04:12:25;;;;;;;0.10;0.10;;;;;;;17.87;52.43;99032.06;5051029;28;20056;-86
2022/04/28 04:14:54;;;;;;;0.00;0.00;;;;;;;18.15;51.99;99031.66;5051596;28;20036;-87
2022/04/28 04:17:20;;;;;;;0.00;0.00;;;;;;;18.47;50.99;99042.94;5050366;28;20468;-87
2022/04/28 04:19:46;;;;;;;0.10;0.10;;;;;;;18.95;49.86;99033.53;5051704;28;20033;-84
2022/04/28 04:22:12;;;;;;;0.10;0.10;;;;;;;19.29;49.16;99042.47;5052627;28;20087;-79
2022/04/28 04:24:37;;;;;;;0.00;0.00;;;;;;;19.68;48.12;99036.78;5050919;28;20035;-83
2022/04/28 04:27:03;;;;;;;0.10;0.10;;;;;;;19.96;47.47;99036.94;5051382;28;20021;-79
2022/04/28 04:29:28;;;;;;;0.00;0.00;;;;;;;20.35;46.44;99042.03;5061036;28;20381;-81
2022/04/28 04:34:38;;;;;;;0.00;0.00;;;;;;;21.08;44.82;99047.63;5052140;28;20059;-81
2022/04/28 04:37:04;;;;;;;0.00;0.00;;;;;;;21.44;44.06;99052.09;5051008;28;20119;-81
2022/04/28 04:39:29;;;;;;;0.03;0.03;;;;;;;21.87;43.15;99051.63;5050564;28;20028;-82
2022/04/28 04:41:54;;;;;;;0.10;0.10;;;;;;;22.17;42.73;99057.41;5050844;28;20471;-81
2022/04/28 04:44:20;;;;;;;0.00;0.00;;;;;;;22.52;41.75;99055.84;5050923;28;20025;-81
2022/04/28 04:46:45;;;;;;;0.08;0.08;;;;;;;22.88;41.21;99062.06;5050995;28;20451;-81
2022/04/28 04:49:10;;;;;;;0.00;0.00;;;;;;;23.22;40.50;99062.38;5052420;28;20542;-81
2022/04/28 04:51:36;;;;;;;0.00;0.00;;;;;;;23.56;39.80;99059.06;5050456;28;20049;-80
2022/04/28 04:54:01;;;;;;;0.10;0.10;;;;;;;23.88;39.52;99064.31;5050733;28;20029;-81
2022/04/28 04:56:27;;;;;;;0.00;0.00;;;;;;;24.19;38.11;99068.72;5050516;28;20025;-81
2022/04/28 04:58:52;;;;;;;0.10;0.10;;;;;;;24.21;38.40;99069.16;5050772;28;20025;-81
2022/04/28 05:01:18;;;;;;;0.10;0.10;;;;;;;24.44;37.66;99066.34;5052355;28;20036;-81
2022/04/28 05:03:43;;;;;;;0.00;0.00;;;;;;;24.69;37.35;99062.41;5050262;28;20021;-80
2022/04/28 05:06:08;;;;;;;0.00;0.00;;;;;;;24.87;37.06;99068.91;5050493;28;20029;-80
2022/04/28 05:08:34;;;;;;;0.00;0.00;;;;;;;25.15;36.43;99064.16;5050295;28;20036;-81
2022/04/28 05:10:59;;;;;;;0.65;0.65;;;;;;;25.23;35.81;99072.06;5050379;28;20630;-80
2022/04/28 05:13:25;;;;;;;0.00;0.00;;;;;;;25.44;35.74;99073.47;5050191;28;20021;-80
2022/04/28 05:15:50;;;;;;;0.00;0.00;;;;;;;25.50;35.80;99082.91;5050498;28;20163;-81
2022/04/28 05:18:16;;;;;;;0.00;0.00;;;;;;;25.42;35.23;99086.75;5050395;28;20036;-80
2022/04/28 05:20:41;;;;;;;1.17;0.28;;;;;;;25.06;35.47;99091.78;5050061;28;20106;-80
2022/04/28 05:23:07;;;;;;;0.00;0.00;;;;;;;24.60;36.70;99087.28;5050141;28;20083;-80
2022/04/28 05:25:33;;;;;;;0.15;0.15;;;;;;;24.58;36.90;99101.31;5050941;28;20075;-81
2022/04/28 05:27:59;;;;;;;0.17;0.17;;;;;;;24.35;36.71;99098.66;5050123;28;20025;-80
2022/04/28 05:30:24;;;;;;;0.05;0.05;;;;;;;24.09;37.69;99100.19;5049217;28;20056;-81
2022/04/28 05:32:50;;;;;;;0.00;0.00;;;;;;;23.83;38.37;99101.69;5050102;28;20029;-80
2022/04/28 05:35:15;;;;;;;0.00;0.00;;;;;;;23.90;38.94;99095.56;5051369;28;20473;-79
2022/04/28 05:37:41;;;;;;;0.00;0.00;;;;;;;23.75;38.40;99105.44;5049829;28;20086;-79
2022/04/28 05:40:07;;;;;;;0.03;0.03;;;;;;;23.73;39.36;99107.75;5050070;28;20037;-80
2022/04/28 05:48:02;;;;;;;0.10;0.10;;;;;;;23.22;40.69;99116.94;5050948;28;20093;-79
2022/04/28 05:50:28;;;;;;;0.05;0.05;;;;;;;23.23;40.85;99113.06;5049604;28;20063;-79
2022/04/28 05:52:53;;;;;;;0.00;0.00;;;;;;;23.44;40.35;99107.22;5049868;28;20025;-80
2022/04/28 05:55:18;;;;;;;0.00;0.00;;;;;;;23.45;40.13;99113.50;5049810;28;20460;-80
2022/04/28 05:57:44;;;;;;;0.00;0.00;;;;;;;23.65;39.69;99117.75;5050622;28;20065;-80
2022/04/28 06:00:10;;;;;;;0.05;0.05;;;;;;;23.65;38.94;99103.31;5049779;28;20025;-80
2022/04/28 06:02:37;;;;;;;0.00;0.00;;;;;;;23.70;39.60;99111.19;5050604;28;20060;-80
2022/04/28 06:05:03;;;;;;;0.20;0.20;;;;;;;23.47;39.55;99116.63;5049325;28;20120;-79
2022/04/28 06:07:29;;;;;;;0.00;0.00;;;;;;;23.31;40.66;99114.78;5049486;28;20363;-80
2022/04/28 06:09:54;;;;;;;0.00;0.00;;;;;;;23.22;40.37;99116.13;5051291;28;20473;-79
2022/04/28 06:12:20;;;;;;;0.00;0.00;;;;;;;22.99;40.70;99108.66;5049454;28;20115;-79
2022/04/28 06:14:45;;;;;;;0.00;0.00;;;;;;;22.68;40.83;99110.34;5049442;28;20048;-79
2022/04/28 06:17:10;;;;;;;0.08;0.08;;;;;;;22.49;42.02;99119.25;5049630;28;20477;-79
2022/04/28 06:19:36;;;;;;;0.10;0.10;;;;;;;22.34;42.44;99113.44;5049375;28;20029;-80
2022/04/28 06:22:02;;;;;;;0.00;0.00;;;;;;;22.05;43.53;99122.88;5049476;28;20025;-80
2022/04/28 06:24:28;;;;;;;0.00;0.00;;;;;;;21.85;43.69;99121.97;5050602;28;20028;-79
2022/04/28 06:26:53;;;;;;;0.20;0.20;;;;;;;21.78;43.71;99125.31;5049467;28;20029;-79
2022/04/28 06:29:18;;;;;;;0.10;0.10;;;;;;;21.49;45.04;99118.28;5049365;28;20078;-79
2022/04/28 06:31:44;;;;;;;0.28;0.28;;;;;;;21.30;45.55;99121.63;5049084;28;20033;-79
2022/04/28 06:34:09;;;;;;;0.13;0.13;;;;;;;20.99;45.96;99120.38;5050505;28;20037;-79
2022/04/28 06:36:35;;;;;;;0.60;0.47;;;;;;;20.81;47.20;99131.50;5048873;28;20037;-79
2022/04/28 06:39:02;;;;;;;0.10;0.10;;;;;;;20.75;47.31;99127.44;5049352;28;20021;-80
2022/04/28 06:41:28;;;;;;;0.10;0.10;;;;;;;20.79;47.97;99120.22;5051737;28;20167;-79
2022/04/28 06:43:55;;;;;;;0.32;0.32;;;;;;;20.72;48.07;99123.50;5053026;28;20119;-79
2022/04/28 06:46:21;;;;;;;0.00;0.00;;;;;;;20.73;47.94;99132.44;5054193;28;20029;-79
2022/04/28 06:48:47;;;;;;;0.10;0.10;;;;;;;20.59;47.68;99133.56;5052877;28;20393;-79
2022/04/28 06:51:13;;;;;;;0.10;0.10;;;;;;;20.77;47.93;99125.19;5052973;28;20045;-79
2022/04/28 06:53:38;;;;;;;0.10;0.10;;;;;;;20.82;48.25;99124.16;5052890;28;20082;-79
2022/04/28 06:56:05;;;;;;;0.35;0.35;;;;;;;20.53;47.74;99120.53;5054328;28;20078;-78
2022/04/28 06:58:30;;;;;;;0.10;0.10;;;;;;;20.47;48.61;99126.22;5052762;28;20377;-79
2022/04/28 07:00:56;;;;;;;0.15;0.15;;;;;;;20.43;48.76;99119.06;5052956;28;20098;-79
2022/04/28 07:03:22;;;;;;;0.03;0.03;;;;;;;20.40;48.49;99130.63;5054057;28;20033;-79
2022/04/28 07:05:48;;;;;;;0.10;0.10;;;;;;;20.56;47.80;99125.31;5053891;28;20094;-80
2022/04/28 07:08:13;;;;;;;0.08;0.08;;;;;;;20.59;47.78;99121.88;5052732;28;20025;-79
2022/04/28 07:10:40;;;;;;;0.00;0.00;;;;;;;20.59;47.49;99119.97;5052528;28;20025;-79
2022/04/28 07:13:06;;;;;;;0.00;0.00;;;;;;;20.62;48.58;99121.22;5052696;28;20120;-79
2022/04/28 07:15:34;;;;;;;0.13;0.13;;;;;;;20.77;48.07;99120.53;5052363;28;20420;-79
2022/04/28 07:18:01;;;;;;;0.10;0.10;;;;;;;20.89;48.28;99117.00;5052688;28;20096;-80
2022/04/28 07:20:27;;;;;;;0.00;0.00;;;;;;;21.11;47.55;99126.56;5052642;28;20036;-80
2022/04/28 07:22:53;;;;;;;0.00;0.00;;;;;;;21.36;46.03;99118.34;5052240;28;20035;-80
2022/04/28 07:25:19;;;;;;;0.00;0.00;;;;;;;21.02;45.20;99127.84;5052542;28;20021;-79
2022/04/28 07:27:44;;;;;;;0.10;0.10;;;;;;;20.98;47.10;99116.09;5052313;28;20021;-80
2022/04/28 07:30:10;;;;;;;0.10;0.10;;;;;;;21.07;46.99;99128.41;5052503;28;20029;-80
2022/04/28 07:32:35;;;;;;;0.10;0.10;;;;;;;21.07;47.88;99125.69;5052192;28;20021;-80
2022/04/28 07:35:01;;;;;;;0.00;0.00;;;;;;;21.06;45.69;99126.03;5052392;28;20040;-79
2022/04/28 07:37:26;;;;;;;0.00;0.00;;;;;;;20.86;46.42;99120.44;5052131;28;20037;-79
2022/04/28 07:39:52;;;;;;;5.13;1.55;;;;;;;20.79;46.78;99123.72;5052108;28;20025;-80
2022/04/28 07:42:17;;;;;;;0.00;0.00;;;;;;;20.58;46.98;99126.53;5053735;28;20029;-79
2022/04/28 07:44:43;;;;;;;0.10;0.10;;;;;;;20.61;47.83;99125.84;5051914;28;20036;-80
2022/04/28 07:47:08;;;;;;;0.10;0.10;;;;;;;20.68;47.93;99133.44;5051809;28;20021;-80
2022/04/28 07:49:36;;;;;;;0.00;0.00;;;;;;;20.74;46.97;99132.09;5051599;28;20115;-79
2022/04/28 07:52:02;;;;;;;0.30;0.30;;;;;;;20.65;47.88;99136.81;5052407;28;20049;-79
2022/04/28 07:54:27;;;;;;;0.20;0.20;;;;;;;20.62;46.90;99130.16;5051974;28;20471;-78
2022/04/28 07:56:53;;;;;;;0.10;0.10;;;;;;;20.52;48.07;99132.53;5051720;28;20119;-78
2022/04/28 07:59:18;;;;;;;0.00;0.00;;;;;;;20.58;47.75;99126.53;5052007;28;20091;-79
2022/04/28 08:01:43;;;;;;;0.10;0.10;;;;;;;20.54;48.41;99122.91;5051621;28;20174;-79
2022/04/28 08:04:09;;;;;;;0.10;0.10;;;;;;;20.61;48.70;99128.56;5051943;28;20029;-80
2022/04/28 08:06:34;;;;;;;0.10;0.10;;;;;;;20.62;47.42;99132.09;5051628;28;20025;-79
2022/04/28 08:09:00;;;;;;;0.00;0.00;;;;;;;20.66;48.45;99132.19;5051790;28;20033;-80
2022/04/28 08:11:25;;;;;;;0.00;0.00;;;;;;;20.82;48.35;99130.38;5051701;28;20021;-80
2022/04/28 08:13:51;;;;;;;0.10;0.10;;;;;;;20.82;47.38;99126.88;5051364;28;20094;-80
2022/04/28 08:16:16;;;;;;;0.10;0.10;;;;;;;20.78;46.60;99124.06;5051622;28;20033;-79
2022/04/28 08:18:42;;;;;;;0.68;0.68;;;;;;;20.74;46.68;99123.94;5051301;28;20029;-79
2022/04/28 08:21:08;;;;;;;0.63;0.60;;;;;;;20.69;46.69;99129.59;5051468;28;20025;-79
2022/04/28 08:23:37;;;;;;;0.60;0.60;;;;;;;20.51;47.86;99120.09;5051209;28;20024;-79
2022/04/28 08:26:04;;;;;;;0.03;0.03;;;;;;;20.47;48.70;99122.72;5051697;28;20050;-80
2022/04/28 08:28:30;;;;;;;0.30;0.30;;;;;;;20.48;49.48;99127.78;5051369;28;20033;-81
2022/04/28 08:30:55;;;;;;;0.10;0.10;;;;;;;20.50;48.69;99123.97;5051150;28;20029;-81
2022/04/28 08:33:21;;;;;;;0.00;0.00;;;;;;;20.46;49.13;99115.69;5051120;28;20032;-80
2022/04/28 08:35:46;;;;;;;1.08;0.98;;;;;;;20.30;48.62;99124.50;5052489;28;20033;-80
2022/04/28 08:38:12;;;;;;;0.20;0.20;;;;;;;20.27;49.20;99118.97;5050683;28;20028;-80
2022/04/28 08:40:37;;;;;;;0.30;0.30;;;;;;;20.28;49.77;99128.69;5051012;28;20031;-81
2022/04/28 08:43:04;;;;;;;0.10;0.10;;;;;;;20.33;49.91;99116.81;5051035;28;20098;-81
2022/04/28 08:45:38;;;;;;;0.50;0.50;;;;;;;20.37;48.46;99125.88;5051172;28;20029;-81
2022/04/28 08:48:06;;;;;;;0.00;0.00;;;;;;;20.36;47.57;99116.94;5051047;28;20478;-81
2022/04/28 08:50:32;;;;;;;0.00;0.00;;;;;;;20.35;48.25;99112.63;5050766;28;20485;-81
2022/04/28 08:52:59;;;;;;;0.10;0.10;;;;;;;20.36;48.66;99118.84;5050594;28;20033;-81
2022/04/28 08:55:24;;;;;;;0.10;0.10;;;;;;;20.39;48.56;99123.63;5050922;28;20032;-80
2022/04/28 08:57:50;;;;;;;0.22;0.22;;;;;;;20.48;48.38;99124.28;5051631;28;20083;-81
2022/04/28 09:00:17;;;;;;;0.10;0.10;;;;;;;20.38;47.73;99113.88;5052043;28;20029;-81
2022/04/28 09:02:42;;;;;;;1.10;0.32;;;;;;;20.43;48.86;99111.75;5052030;28;20021;-81
2022/04/28 09:05:08;;;;;;;0.15;0.15;;;;;;;20.51;49.09;99110.03;5050580;28;20040;-80
2022/04/28 09:07:35;;;;;;;0.20;0.20;;;;;;;20.63;48.13;99107.28;5050706;28;20033;-80
2022/04/28 09:10:21;;;;;;;0.10;0.10;;;;;;;20.69;48.54;99102.41;5050394;28;20029;-80
2022/04/28 09:15:49;;;;;;;0.00;0.00;;;;;;;21.05;47.48;99108.91;5051625;28;20542;-80
2022/04/28 09:18:15;;;;;;;0.22;0.22;;;;;;;21.17;45.72;99105.38;5051749;28;20083;-79
2022/04/28 09:20:42;;;;;;;0.10;0.10;;;;;;;21.26;45.52;99099.78;5050115;28;20025;-81
2022/04/28 09:23:09;;;;;;;0.10;0.10;;;;;;;21.26;44.98;99106.03;5050203;28;20025;-81
2022/04/28 09:25:34;;;;;;;0.00;0.00;;;;;;;21.31;45.93;99093.31;5050304;28;20033;-81
2022/04/28 09:28:02;;;;;;;0.10;0.10;;;;;;;21.39;46.24;99095.09;5049658;28;20040;-81
2022/04/28 09:30:43;;;;;;;0.08;0.08;;;;;;;21.46;46.45;99092.56;5050347;28;20035;-81
2022/04/28 09:33:14;;;;;;;0.10;0.10;;;;;;;21.55;46.28;99087.75;5050233;28;20032;-80
2022/04/28 09:35:49;;;;;;;10.20;1.77;;;;;;;21.64;46.79;99087.63;5049907;28;20029;-81
2022/04/28 09:38:14;;;;;;;0.25;0.25;;;;;;;21.74;45.55;99089.81;5050036;28;20029;-81
2022/04/28 09:43:27;;;;;;;0.10;0.10;;;;;;;21.89;44.92;99084.75;5051352;28;20071;-81
2022/04/28 09:45:55;;;;;;;0.03;0.03;;;;;;;21.86;44.19;99083.50;5049728;28;20461;-81
2022/04/28 09:48:21;;;;;;;0.00;0.00;;;;;;;21.91;45.19;99072.34;5049981;28;20173;-81
2022/04/28 09:50:48;;;;;;;0.20;0.20;;;;;;;22.01;44.48;99081.16;5049756;28;20136;-82
2022/04/28 09:53:15;;;;;;;0.13;0.13;;;;;;;21.99;40.36;99081.47;5051126;28;20025;-82
2022/04/28 09:55:44;;;;;;;0.13;0.13;;;;;;;21.99;40.27;99073.31;5049711;28;20032;-81
2022/04/28 09:58:11;;;;;;;0.17;0.17;;;;;;;21.91;37.96;99075.06;5049789;28;20025;-81
2022/04/28 10:00:37;;;;;;;0.00;0.00;;;;;;;21.85;36.35;99068.31;5049544;28;20043;-81
2022/04/28 10:03:03;;;;;;;0.13;0.13;;;;;;;21.76;37.51;99056.81;5049302;28;20033;-81
2022/04/28 10:05:29;;;;;;;0.00;0.00;;;;;;;21.81;37.63;99078.31;5049778;28;20090;-81
2022/04/28 10:07:55;;;;;;;0.10;0.10;;;;;;;21.81;38.15;99070.16;5049538;28;20021;-81
2022/04/28 10:10:21;;;;;;;0.10;0.10;;;;;;;21.86;38.52;99055.47;5049521;28;20523;-81
2022/04/28 10:12:48;;;;;;;0.10;0.10;;;;;;;22.00;38.74;99064.00;5049299;28;20060;-81
2022/04/28 10:15:15;;;;;;;0.40;0.40;;;;;;;22.16;39.79;99061.25;5049047;28;20029;-81
2022/04/28 10:17:45;;;;;;;0.20;0.20;;;;;;;22.30;38.22;99060.00;5049461;28;20120;-82
2022/04/28 10:20:17;;;;;;;0.17;0.17;;;;;;;22.35;36.71;99055.09;5049117;28;20029;-83
2022/04/28 10:22:45;;;;;;;0.00;0.00;;;;;;;22.47;38.27;99056.94;5049359;28;20025;-82
2022/04/28 10:34:12;;;;;;;0.20;0.20;;;;;;;22.57;37.26;99038.44;5067831;28;20036;-81
2022/04/28 10:36:56;;;;;;;0.00;0.00;;;;;;;22.53;37.02;99039.16;5049107;28;20186;-82
2022/04/28 10:39:55;;;;;;;0.00;0.00;;;;;;;22.61;37.60;99036.59;5049351;28;20029;-80
2022/04/28 10:42:26;;;;;;;1.75;0.85;;;;;;;22.56;37.34;99037.66;5037689;28;20037;-81
2022/04/28 10:44:55;;;;;;;0.10;0.10;;;;;;;22.49;37.65;99027.38;5050424;28;20091;-80
2022/04/28 10:47:38;;;;;;;0.20;0.20;;;;;;;22.58;38.21;99029.91;5049225;28;20078;-80
2022/04/28 10:50:20;;;;;;;0.10;0.10;;;;;;;22.62;39.01;99030.78;5048825;28;20110;-80
2022/04/28 10:53:00;;;;;;;0.10;0.10;;;;;;;22.74;37.70;99021.69;5049120;28;20033;-79
2022/04/28 10:55:33;;;;;;;0.10;0.10;;;;;;;22.74;37.35;99031.78;5049328;28;20033;-80
2022/04/28 10:58:18;;;;;;;0.13;0.10;;;;;;;22.69;38.33;99019.22;5048810;28;20032;-80
2022/04/28 11:00:54;;;;;;;0.03;0.03;;;;;;;22.76;38.09;99026.78;5049092;28;20040;-80
2022/04/28 11:03:48;;;;;;;0.08;0.08;;;;;;;22.80;37.16;99024.91;5049240;28;20488;-81
2022/04/28 11:06:22;;;;;;;0.38;0.38;;;;;;;22.84;37.13;99031.22;5049227;28;20021;-81
2022/04/28 11:08:49;;;;;;;0.35;0.35;;;;;;;22.75;35.66;99036.88;5048787;28;20090;-81
2022/04/28 11:11:16;;;;;;;0.10;0.10;;;;;;;22.81;35.15;99042.84;5049175;28;20033;-81
2022/04/28 11:13:48;;;;;;;0.25;0.25;;;;;;;22.79;36.25;99039.66;5048892;28;20033;-81
2022/04/28 11:16:16;;;;;;;0.10;0.10;;;;;;;22.81;35.28;99038.19;5049051;28;20025;-81
2022/04/28 11:18:43;;;;;;;0.10;0.10;;;;;;;22.95;35.59;99036.88;5048893;28;20036;-81
2022/04/28 11:21:08;;;;;;;0.30;0.30;;;;;;;23.08;36.12;99035.56;5048539;28;20404;-81
2022/04/28 11:23:36;;;;;;;0.00;0.00;;;;;;;23.25;35.97;99036.31;5048902;28;20055;-81
2022/04/28 11:26:02;;;;;;;0.30;0.20;;;;;;;23.45;36.11;99029.66;5048745;28;20087;-81
2022/04/28 11:28:30;;;;;;;0.00;0.00;;;;;;;23.50;36.51;99029.34;5051320;28;20029;-81
2022/04/28 11:30:57;;;;;;;0.40;0.33;;;;;;;23.47;36.52;99016.44;5052378;28;20033;-81
2022/04/28 11:33:23;;;;;;;0.15;0.15;;;;;;;23.51;36.38;99016.53;5052262;28;20460;-80
2022/04/28 11:35:49;;;;;;;0.00;0.00;;;;;;;23.48;36.17;99036.34;5051977;28;20208;-81
2022/04/28 11:38:23;;;;;;;0.10;0.10;;;;;;;23.42;36.37;99019.47;5052031;28;20060;-82
2022/04/28 11:40:59;;;;;;;0.10;0.10;;;;;;;23.50;36.25;99015.72;5052017;28;20028;-81
2022/04/28 11:43:28;;;;;;;0.13;0.13;;;;;;;23.49;36.34;99011.41;5052061;28;20025;-81
2022/04/28 11:45:54;;;;;;;0.30;0.30;;;;;;;23.44;36.44;99016.41;5052039;28;20513;-79
2022/04/28 11:48:22;;;;;;;0.30;0.30;;;;;;;23.46;36.44;99014.06;5052239;28;20113;-80
2022/04/28 11:50:48;;;;;;;0.10;0.10;;;;;;;23.45;36.83;99013.28;5051696;28;20393;-81
2022/04/28 11:53:13;;;;;;;0.03;0.03;;;;;;;23.41;36.43;99001.53;5051929;28;20120;-80
2022/04/28 11:55:40;;;;;;;0.00;0.00;;;;;;;23.55;36.39;98998.25;5052143;28;20028;-80
2022/04/28 11:58:08;;;;;;;0.00;0.00;;;;;;;23.60;36.31;99000.66;5051762;28;20028;-80
2022/04/28 12:00:38;;;;;;;0.00;0.00;;;;;;;23.60;36.34;98983.50;5051963;28;20091;-81
2022/04/28 12:03:03;;;;;;;0.00;0.00;;;;;;;23.62;35.84;98983.91;5051650;28;20029;-80
2022/04/28 12:05:32;;;;;;;0.10;0.10;;;;;;;23.63;35.43;98986.31;5051805;28;20040;-80